Time;durP1;ratioP1;P1;durP2;ratioP2;P2;SDS_P1;SDS_P2;PMS_P1;PMS_P2;Temp;Humidity;BMP_temperature;BMP_pressure;BME280_temperature;BME280_humidity;BME280_pressure;Samples;Min_cycle;Max_cycle;Signal;HPM_P1;HPM_P2
2024/01/24 00:01:04;;;;;;;;;1.00;1.00;;;;;13.19;68.78;102319.81;5119755;27;45346;-71
2024/01/24 00:03:29;;;;;;;;;1.00;1.00;;;;;13.24;68.73;102329.69;5119641;27;45379;-71
2024/01/24 00:05:55;;;;;;;;;0.00;0.00;;;;;12.96;68.88;102280.25;5119489;27;45348;-71
2024/01/24 00:08:21;;;;;;;;;1.00;1.00;;;;;13.21;68.70;102323.41;5119220;27;45952;-71
2024/01/24 00:10:46;;;;;;;;;0.50;0.50;;;;;13.19;68.87;102310.22;5119390;27;46008;-72
2024/01/24 00:13:12;;;;;;;;;0.00;0.00;;;;;13.19;68.75;102306.69;5119530;27;45387;-71
2024/01/24 00:15:38;;;;;;;;;1.00;0.25;;;;;13.18;68.85;102297.03;5119676;27;45311;-71
2024/01/24 00:18:04;;;;;;;;;0.00;0.00;;;;;13.12;68.96;102292.38;5119630;27;45892;-72
2024/01/24 00:20:29;;;;;;;;;0.00;0.00;;;;;13.12;68.92;102303.78;5119124;27;45552;-71
2024/01/24 00:22:55;;;;;;;;;1.00;1.00;;;;;13.12;68.71;102310.75;5119251;27;45500;-72
2024/01/24 00:25:21;;;;;;;;;1.75;1.00;;;;;13.08;69.17;102307.09;5119448;27;45630;-72
2024/01/24 00:27:47;;;;;;;;;1.00;1.00;;;;;12.99;68.91;102308.34;5119104;27;45470;-71
2024/01/24 00:30:12;;;;;;;;;0.50;0.50;;;;;12.93;69.03;102299.38;5119049;27;45449;-71
2024/01/24 00:32:38;;;;;;;;;0.00;0.00;;;;;12.99;69.39;102324.09;5119163;27;45397;-72
2024/01/24 00:35:04;;;;;;;;;2.00;1.50;;;;;12.92;69.27;102309.81;5119650;27;45556;-71
2024/01/24 00:37:30;;;;;;;;;1.25;1.25;;;;;12.95;69.16;102315.19;5118926;27;45374;-71
2024/01/24 00:39:55;;;;;;;;;2.00;1.25;;;;;12.83;69.22;102288.34;5118780;27;45559;-71
2024/01/24 00:42:21;;;;;;;;;1.00;1.00;;;;;12.93;69.56;102296.75;5119023;27;45210;-71
2024/01/24 00:44:50;;;;;;;;;1.00;1.00;;;;;12.91;68.85;102310.59;5119182;27;45352;-71
2024/01/24 00:47:17;;;;;;;;;1.00;0.00;;;;;12.89;68.64;102301.75;5118860;27;45325;-71
2024/01/24 00:49:42;;;;;;;;;0.50;0.50;;;;;12.88;69.14;102303.50;5117861;27;45287;-71
2024/01/24 00:52:08;;;;;;;;;0.75;0.75;;;;;12.63;68.99;102255.91;5118208;27;45373;-71
2024/01/24 00:54:34;;;;;;;;;0.00;0.00;;;;;12.88;69.29;102311.38;5117394;27;45348;-70
2024/01/24 00:56:59;;;;;;;;;1.00;0.00;;;;;12.86;69.28;102317.38;5118262;27;45217;-71
2024/01/24 00:59:25;;;;;;;;;2.00;1.75;;;;;12.76;69.01;102318.63;5116513;27;45416;-71
2024/01/24 01:01:51;;;;;;;;;1.00;0.00;;;;;12.74;69.00;102322.91;5118280;27;45404;-71
2024/01/24 01:04:16;;;;;;;;;0.25;0.00;;;;;12.66;69.19;102322.53;5115700;27;45334;-72
2024/01/24 01:06:42;;;;;;;;;1.00;1.00;;;;;12.51;69.69;102311.25;5118364;27;45456;-71
2024/01/24 01:09:08;;;;;;;;;0.75;0.75;;;;;12.63;69.74;102331.94;5118496;27;45416;-72
2024/01/24 01:11:33;;;;;;;;;1.00;1.00;;;;;12.60;69.65;102327.47;5116955;27;45581;-71
2024/01/24 01:13:59;;;;;;;;;1.00;1.00;;;;;12.62;69.67;102327.56;5118162;27;45371;-71
2024/01/24 01:16:25;;;;;;;;;1.00;1.00;;;;;12.59;69.58;102309.03;5117274;27;45632;-72
2024/01/24 01:18:50;;;;;;;;;0.50;0.50;;;;;12.51;69.36;102292.91;5118374;27;45321;-72
2024/01/24 01:21:16;;;;;;;;;1.00;1.00;;;;;12.61;69.72;102310.00;5118637;27;45349;-71
2024/01/24 01:23:41;;;;;;;;;1.75;1.00;;;;;12.61;70.00;102307.38;5118764;27;45475;-71
2024/01/24 01:26:07;;;;;;;;;2.00;1.00;;;;;12.59;69.42;102315.16;5118615;27;45872;-71
2024/01/24 01:28:33;;;;;;;;;1.75;0.75;;;;;12.58;69.81;102317.72;5118172;27;45360;-71
2024/01/24 01:30:58;;;;;;;;;0.75;0.75;;;;;12.58;69.99;102316.00;5118321;27;45286;-72
2024/01/24 01:33:24;;;;;;;;;1.00;1.00;;;;;12.57;69.54;102321.16;5118414;27;45364;-71
2024/01/24 01:35:49;;;;;;;;;0.75;0.75;;;;;12.48;69.77;102319.88;5118124;27;45209;-71
2024/01/24 01:38:15;;;;;;;;;0.75;0.75;;;;;12.38;70.82;102325.47;5118155;27;45432;-70
2024/01/24 01:40:41;;;;;;;;;1.00;1.00;;;;;12.36;69.43;102342.84;5118454;27;45250;-71
2024/01/24 01:43:13;;;;;;;;;0.00;0.00;;;;;12.33;69.32;102337.44;5118917;27;45428;-71
2024/01/24 01:45:39;;;;;;;;;1.00;1.00;;;;;12.34;70.09;102339.25;5118341;27;45424;-71
2024/01/24 01:48:05;;;;;;;;;1.00;1.00;;;;;12.37;70.66;102336.78;5118011;27;45461;-71
2024/01/24 01:50:31;;;;;;;;;1.00;1.00;;;;;12.40;70.70;102333.44;5118201;27;45287;-72
2024/01/24 01:52:58;;;;;;;;;0.00;0.00;;;;;12.25;70.54;102302.97;5116825;27;45512;-71
2024/01/24 01:55:24;;;;;;;;;1.00;1.00;;;;;12.15;70.59;102303.31;5117892;27;46196;-70
2024/01/24 01:57:50;;;;;;;;;1.00;1.00;;;;;12.36;70.37;102332.38;5117821;27;45416;-71
2024/01/24 02:00:20;;;;;;;;;0.50;0.50;;;;;12.33;70.22;102327.88;5118102;27;45349;-71
2024/01/24 02:02:47;;;;;;;;;1.00;0.75;;;;;12.32;70.09;102333.03;5118164;27;45458;-70
2024/01/24 02:05:14;;;;;;;;;0.00;0.00;;;;;12.31;70.00;102347.88;5117684;27;45968;-71
2024/01/24 02:07:43;;;;;;;;;1.00;1.00;;;;;12.27;69.59;102334.50;5118158;27;45453;-71
2024/01/24 02:10:14;;;;;;;;;1.25;1.00;;;;;12.27;69.84;102339.75;5117958;27;45367;-71
2024/01/24 02:12:40;;;;;;;;;1.00;1.00;;;;;12.24;70.28;102342.22;5118275;27;45332;-71
2024/01/24 02:15:08;;;;;;;;;0.50;0.50;;;;;12.02;69.89;102304.44;5117292;27;45294;-72
2024/01/24 02:17:33;;;;;;;;;0.25;0.25;;;;;12.24;70.03;102352.72;5117675;27;45299;-71
2024/01/24 02:20:00;;;;;;;;;1.00;0.00;;;;;12.23;70.04;102349.16;5117723;27;45307;-71
2024/01/24 02:22:25;;;;;;;;;0.00;0.00;;;;;12.24;70.16;102352.72;5117960;27;45337;-71
2024/01/24 02:24:51;;;;;;;;;0.00;0.00;;;;;12.05;69.80;102314.16;5117384;27;45581;-71
2024/01/24 02:27:17;;;;;;;;;0.50;0.00;;;;;12.15;69.79;102332.16;5117585;27;45288;-71
2024/01/24 02:29:42;;;;;;;;;0.00;0.00;;;;;12.23;69.43;102353.50;5121285;27;45432;-70
2024/01/24 02:32:08;;;;;;;;;1.00;1.00;;;;;12.22;69.36;102347.38;5121380;27;45432;-71
2024/01/24 02:34:33;;;;;;;;;0.75;0.00;;;;;12.19;69.62;102349.81;5121106;27;46113;-70
2024/01/24 02:36:59;;;;;;;;;1.00;0.00;;;;;12.21;69.84;102352.53;5120966;27;45414;-70
2024/01/24 02:39:25;;;;;;;;;0.00;0.00;;;;;12.20;70.20;102348.13;5120928;27;45287;-71
2024/01/24 02:41:50;;;;;;;;;2.00;1.00;;;;;12.00;70.36;102324.41;5121049;27;45442;-71
2024/01/24 02:44:16;;;;;;;;;1.00;0.00;;;;;12.10;69.93;102345.00;5120529;27;45444;-71
2024/01/24 02:46:41;;;;;;;;;1.00;1.00;;;;;12.11;69.70;102349.41;5121013;27;45254;-71
2024/01/24 02:49:07;;;;;;;;;0.00;0.00;;;;;12.08;69.96;102348.38;5120854;27;45478;-70
2024/01/24 02:51:33;;;;;;;;;3.00;1.00;;;;;11.98;69.66;102349.63;5120812;27;45431;-71
2024/01/24 02:53:58;;;;;;;;;0.00;0.00;;;;;11.96;70.20;102343.41;5120567;27;45402;-72
2024/01/24 02:56:24;;;;;;;;;1.00;0.00;;;;;11.79;69.92;102318.00;5120557;27;45486;-71
2024/01/24 02:58:50;;;;;;;;;1.00;1.00;;;;;11.96;69.80;102355.56;5120715;27;45196;-72
2024/01/24 03:01:15;;;;;;;;;0.75;0.75;;;;;11.93;70.07;102351.97;5121294;27;45312;-71
2024/01/24 03:03:41;;;;;;;;;1.00;0.75;;;;;11.78;70.24;102329.25;5120665;27;46154;-71
2024/01/24 03:06:08;;;;;;;;;1.75;1.00;;;;;11.76;70.68;102334.44;5120417;27;45383;-72
2024/01/24 03:08:50;;;;;;;;;1.00;1.00;;;;;11.90;70.70;102348.31;5120562;27;45317;-71
2024/01/24 03:11:16;;;;;;;;;1.25;0.50;;;;;11.68;70.58;102300.00;5119285;27;45249;-71
2024/01/24 03:13:42;;;;;;;;;1.00;1.00;;;;;11.88;70.43;102334.19;5120658;27;45950;-71
2024/01/24 03:16:08;;;;;;;;;1.00;1.00;;;;;11.89;70.03;102347.38;5120161;27;45467;-71
2024/01/24 03:18:38;;;;;;;;;1.00;0.00;;;;;11.89;69.69;102354.34;5120445;27;45371;-72
2024/01/24 03:21:09;;;;;;;;;0.25;0.00;;;;;11.87;69.98;102356.84;5120416;27;45481;-71
2024/01/24 03:23:38;;;;;;;;;0.00;0.00;;;;;11.73;69.81;102332.53;5120125;27;46260;-71
2024/01/24 03:26:04;;;;;;;;;1.00;1.00;;;;;11.86;70.15;102355.06;5119997;27;45513;-71
2024/01/24 03:28:30;;;;;;;;;1.00;1.00;;;;;11.85;70.14;102354.97;5120059;27;45445;-71
2024/01/24 03:30:55;;;;;;;;;0.25;0.25;;;;;11.73;69.94;102332.53;5120119;27;45337;-71
2024/01/24 03:33:21;;;;;;;;;0.00;0.00;;;;;11.86;70.52;102341.06;5120086;27;46024;-70
2024/01/24 03:35:47;;;;;;;;;0.00;0.00;;;;;11.82;70.59;102336.50;5120551;27;45533;-72
2024/01/24 03:38:13;;;;;;;;;0.75;0.75;;;;;11.69;70.85;102301.78;5120432;27;45479;-71
2024/01/24 03:40:38;;;;;;;;;0.00;0.00;;;;;11.69;70.75;102301.78;5119362;27;45424;-71
2024/01/24 03:43:05;;;;;;;;;1.00;1.00;;;;;11.84;70.66;102335.75;5119887;27;46216;-72
2024/01/24 03:45:31;;;;;;;;;1.00;1.00;;;;;11.64;70.53;102305.88;5119821;27;45436;-71
2024/01/24 03:47:57;;;;;;;;;1.00;1.00;;;;;11.82;70.39;102332.16;5119840;27;45288;-71
2024/01/24 03:50:22;;;;;;;;;0.75;0.75;;;;;11.81;70.49;102334.69;5119801;27;45294;-72
2024/01/24 03:52:48;;;;;;;;;0.75;0.75;;;;;11.81;70.36;102329.44;5119994;27;45535;-71
2024/01/24 03:55:13;;;;;;;;;0.00;0.00;;;;;11.61;69.98;102290.00;5120135;27;45452;-71
2024/01/24 03:57:40;;;;;;;;;2.00;2.00;;;;;11.65;70.35;102298.91;5119824;27;45366;-71
2024/01/24 04:00:06;;;;;;;;;2.00;1.75;;;;;11.76;70.17;102326.59;5119935;27;45465;-71
2024/01/24 04:02:32;;;;;;;;;2.00;1.00;;;;;11.77;70.05;102323.13;5119364;27;46304;-71
2024/01/24 04:04:57;;;;;;;;;1.00;1.00;;;;;11.70;69.70;102313.16;5119420;27;45440;-71
2024/01/24 04:07:23;;;;;;;;;1.00;1.00;;;;;11.49;69.45;102273.63;5119546;27;45388;-71
2024/01/24 04:09:49;;;;;;;;;1.00;1.00;;;;;11.54;69.87;102287.88;5119849;27;45558;-71
2024/01/24 04:12:14;;;;;;;;;1.00;1.00;;;;;11.62;69.74;102311.81;5119663;27;46623;-70
2024/01/24 04:14:40;;;;;;;;;0.00;0.00;;;;;11.68;69.72;102325.28;5119354;27;45581;-70
2024/01/24 04:17:08;;;;;;;;;0.00;0.00;;;;;11.60;69.67;102314.38;5119508;27;45361;-70
2024/01/24 04:19:34;;;;;;;;;1.00;1.00;;;;;11.41;69.79;102277.56;5119585;27;45460;-70
2024/01/24 04:21:59;;;;;;;;;1.25;0.00;;;;;11.64;69.89;102313.75;5117684;27;45425;-70
2024/01/24 04:24:25;;;;;;;;;0.00;0.00;;;;;11.63;69.99;102314.53;5119089;27;45605;-70
2024/01/24 04:26:51;;;;;;;;;0.00;0.00;;;;;11.61;70.42;102326.66;5119262;27;45494;-71
2024/01/24 04:29:17;;;;;;;;;0.25;0.25;;;;;11.59;70.43;102332.63;5118191;27;45441;-71
2024/01/24 04:31:42;;;;;;;;;1.00;1.00;;;;;11.55;70.17;102326.31;5119129;27;45342;-71
2024/01/24 04:34:08;;;;;;;;;1.00;1.00;;;;;11.52;70.32;102323.53;5119147;27;45431;-71
2024/01/24 04:36:33;;;;;;;;;0.25;0.25;;;;;11.54;70.25;102327.16;5119232;27;45381;-71
2024/01/24 04:38:59;;;;;;;;;0.00;0.00;;;;;11.53;70.58;102328.84;5119213;27;45298;-71
2024/01/24 04:41:25;;;;;;;;;0.00;0.00;;;;;11.53;70.33;102328.84;5118945;27;45433;-71
2024/01/24 04:43:51;;;;;;;;;1.00;1.00;;;;;11.50;70.46;102330.41;5119209;27;45530;-72
2024/01/24 04:46:17;;;;;;;;;1.00;1.00;;;;;11.49;70.64;102337.34;5119408;27;45508;-71
2024/01/24 04:48:43;;;;;;;;;0.75;0.50;;;;;11.50;70.42;102340.88;5118954;27;45270;-72
2024/01/24 04:51:10;;;;;;;;;1.75;1.00;;;;;11.37;70.02;102317.47;5117607;27;46068;-71
2024/01/24 04:53:36;;;;;;;;;1.25;1.00;;;;;11.49;70.07;102346.91;5118366;27;45485;-72
2024/01/24 04:56:03;;;;;;;;;1.25;1.25;;;;;11.49;70.08;102346.91;5118618;27;45431;-71
2024/01/24 04:58:29;;;;;;;;;2.00;1.00;;;;;11.34;70.06;102332.19;5118980;27;45489;-71
2024/01/24 05:00:55;;;;;;;;;0.25;0.25;;;;;11.43;70.21;102352.72;5118599;27;45318;-71
2024/01/24 05:03:21;;;;;;;;;1.25;1.00;;;;;11.42;70.37;102344.78;5118953;27;45354;-72
2024/01/24 05:05:46;;;;;;;;;1.00;1.00;;;;;11.38;70.60;102348.03;5118659;27;45468;-71
2024/01/24 05:08:12;;;;;;;;;0.75;0.75;;;;;11.17;70.67;102312.03;5118642;27;45357;-72
2024/01/24 05:10:38;;;;;;;;;1.25;1.25;;;;;11.42;70.99;102355.22;5118332;27;46081;-72
2024/01/24 05:13:03;;;;;;;;;0.00;0.00;;;;;11.39;70.71;102352.47;5118473;27;45320;-71
2024/01/24 05:15:29;;;;;;;;;1.00;1.00;;;;;11.36;70.51;102345.34;5118592;27;45499;-70
2024/01/24 05:17:55;;;;;;;;;1.00;1.00;;;;;11.39;70.68;102357.69;5118781;27;45301;-71
2024/01/24 05:20:21;;;;;;;;;2.00;2.00;;;;;11.40;70.71;102356.88;5118383;27;45984;-71
2024/01/24 05:22:47;;;;;;;;;1.75;1.00;;;;;11.41;70.69;102363.91;5117938;27;45498;-71
2024/01/24 05:25:12;;;;;;;;;1.50;1.00;;;;;11.33;70.88;102350.41;5117856;27;45615;-71
2024/01/24 05:27:38;;;;;;;;;2.25;2.00;;;;;11.40;70.96;102351.63;5116759;27;45453;-71
2024/01/24 05:30:04;;;;;;;;;0.25;0.00;;;;;11.32;71.11;102343.34;5117233;27;46320;-70
2024/01/24 05:32:31;;;;;;;;;4.00;4.00;;;;;11.31;70.82;102336.34;5117469;27;45556;-71
2024/01/24 05:34:57;;;;;;;;;1.50;1.25;;;;;11.27;71.29;102334.38;5117468;27;45564;-70
2024/01/24 05:37:23;;;;;;;;;3.50;3.00;;;;;11.41;71.18;102369.16;5117781;27;45496;-71
2024/01/24 05:39:49;;;;;;;;;4.00;3.00;;;;;11.28;71.10;102347.53;5117116;27;45875;-69
2024/01/24 05:42:14;;;;;;;;;1.75;1.75;;;;;11.43;71.24;102372.75;5117626;27;45801;-72
2024/01/24 05:44:40;;;;;;;;;3.00;2.75;;;;;11.43;71.25;102371.03;5117501;27;45291;-71
2024/01/24 05:47:05;;;;;;;;;4.25;4.25;;;;;11.41;70.82;102366.53;5117659;27;45501;-71
2024/01/24 05:49:36;;;;;;;;;5.00;4.00;;;;;11.30;70.84;102345.91;5117031;27;45470;-71
2024/01/24 05:52:06;;;;;;;;;9.50;8.50;;;;;11.45;71.06;102371.13;5116982;27;45317;-71
2024/01/24 05:54:32;;;;;;;;;11.50;10.25;;;;;11.44;71.00;102371.91;5117288;27;45239;-70
2024/01/24 05:56:58;;;;;;;;;8.75;8.75;;;;;11.39;70.91;102373.41;5117480;27;45201;-71
2024/01/24 05:59:23;;;;;;;;;1.25;1.25;;;;;11.38;71.19;102382.97;5117272;27;45379;-70
2024/01/24 06:01:50;;;;;;;;;3.00;3.00;;;;;11.27;71.04;102366.66;5117264;27;45342;-70
2024/01/24 06:04:15;;;;;;;;;2.25;2.25;;;;;11.37;70.75;102383.78;5110256;27;45582;-71
2024/01/24 06:06:41;;;;;;;;;3.75;3.00;;;;;11.17;70.88;102351.25;5120809;27;45560;-71
2024/01/24 06:09:06;;;;;;;;;3.00;3.00;;;;;11.35;70.73;102381.06;5120501;27;45692;-70
2024/01/24 06:11:32;;;;;;;;;4.00;4.00;;;;;11.35;70.72;102380.16;5120362;27;45546;-71
2024/01/24 06:13:58;;;;;;;;;3.50;3.50;;;;;11.32;70.62;102375.69;5120694;27;46423;-71
2024/01/24 06:16:23;;;;;;;;;2.25;2.00;;;;;11.33;71.04;102389.66;5121004;27;45590;-71
2024/01/24 06:18:49;;;;;;;;;3.50;3.00;;;;;11.31;71.06;102375.59;5120421;27;46073;-71
2024/01/24 06:21:14;;;;;;;;;4.50;3.75;;;;;11.24;71.30;102365.56;5120177;27;45419;-71
2024/01/24 06:23:40;;;;;;;;;5.00;5.00;;;;;11.27;71.56;102373.59;5121249;27;45216;-71
2024/01/24 06:26:05;;;;;;;;;4.50;3.25;;;;;11.08;71.38;102354.25;5121406;27;45322;-71
2024/01/24 06:28:31;;;;;;;;;6.25;5.00;;;;;11.08;71.42;102355.97;5121014;27;45531;-71
2024/01/24 06:30:57;;;;;;;;;2.00;2.00;;;;;11.22;71.66;102389.06;5120758;27;45379;-71
2024/01/24 06:33:24;;;;;;;;;2.75;2.75;;;;;11.22;71.89;102386.44;5121291;27;45673;-71
2024/01/24 06:35:49;;;;;;;;;83.33;67.00;;;;;11.23;71.80;102387.34;5121247;27;45279;-71
2024/01/24 06:38:15;;;;;;;;;49.50;42.25;;;;;11.16;71.51;102380.88;5120844;27;46044;-71
2024/01/24 06:40:41;;;;;;;;;86.67;73.67;;;;;11.18;71.50;102388.78;5120780;27;45395;-71
2024/01/24 06:43:07;;;;;;;;;34.50;31.25;;;;;11.18;72.46;102388.78;5120982;27;45472;-71
2024/01/24 06:45:32;;;;;;;;;97.50;93.00;;;;;11.15;72.31;102389.50;5121020;27;45490;-71
2024/01/24 06:47:58;;;;;;;;;109.00;91.33;;;;;11.15;72.35;102386.91;5120880;27;45241;-71
2024/01/24 06:50:24;;;;;;;;;41.00;35.00;;;;;11.14;71.65;102379.84;5120808;27;45241;-72
2024/01/24 06:52:50;;;;;;;;;20.00;18.75;;;;;11.02;71.72;102369.63;5120818;27;45552;-73
2024/01/24 06:55:17;;;;;;;;;13.00;12.00;;;;;11.12;71.39;102389.31;5120993;27;45307;-72
2024/01/24 06:57:44;;;;;;;;;9.75;8.75;;;;;11.10;71.53;102396.19;5120407;27;46093;-72
2024/01/24 07:00:10;;;;;;;;;8.00;7.50;;;;;11.10;71.32;102390.94;5120510;27;45467;-72
2024/01/24 07:02:39;;;;;;;;;7.75;7.75;;;;;11.09;71.25;102394.41;5120640;27;45364;-72
2024/01/24 07:05:05;;;;;;;;;21.75;21.00;;;;;11.07;71.48;102394.28;5120551;27;45225;-72
2024/01/24 07:07:31;;;;;;;;;54.75;41.25;;;;;11.09;71.16;102397.00;5120245;27;45346;-72
2024/01/24 07:09:57;;;;;;;;;53.25;42.50;;;;;10.98;70.94;102387.63;5120623;27;45316;-72
2024/01/24 07:12:23;;;;;;;;;15.25;13.50;;;;;11.04;71.18;102404.59;5120428;27;45405;-72
2024/01/24 07:14:48;;;;;;;;;21.25;19.50;;;;;10.86;71.02;102370.44;5119463;27;45452;-72
2024/01/24 07:17:15;;;;;;;;;25.00;21.00;;;;;11.03;71.31;102397.56;5119955;27;45383;-72
2024/01/24 07:19:41;;;;;;;;;23.75;20.50;;;;;11.02;71.58;102402.69;5118705;27;45268;-72
2024/01/24 07:22:06;;;;;;;;;27.75;24.50;;;;;11.01;71.61;102398.28;5118769;27;45415;-71
2024/01/24 07:24:32;;;;;;;;;28.25;22.75;;;;;11.01;71.42;102400.91;5109343;27;45552;-70
2024/01/24 07:26:58;;;;;;;;;54.50;41.75;;;;;11.02;71.48;102400.06;5119204;27;46633;-72
2024/01/24 07:29:24;;;;;;;;;42.00;36.25;;;;;10.82;71.39;102368.44;5119102;27;46375;-72
2024/01/24 07:31:50;;;;;;;;;12.50;10.00;;;;;11.00;71.31;102402.63;5119064;27;45495;-71
2024/01/24 07:34:16;;;;;;;;;10.00;9.25;;;;;10.85;71.36;102375.56;5119381;27;45584;-72
2024/01/24 07:36:42;;;;;;;;;12.25;9.50;;;;;11.01;71.54;102406.13;5116799;27;45529;-71
2024/01/24 07:39:21;;;;;;;;;16.00;14.00;;;;;11.02;71.50;102407.91;5118814;27;45423;-71
2024/01/24 07:41:47;;;;;;;;;25.75;25.00;;;;;11.02;71.73;102406.22;5117362;27;45439;-72
2024/01/24 07:44:12;;;;;;;;;20.25;17.75;;;;;11.04;71.59;102412.44;5119052;27;45294;-72
2024/01/24 07:46:42;;;;;;;;;39.50;35.25;;;;;11.07;71.98;102409.09;5116051;27;46270;-72
2024/01/24 07:49:08;;;;;;;;;49.75;42.50;;;;;11.01;71.69;102399.19;5118649;27;45404;-71
2024/01/24 07:51:34;;;;;;;;;65.00;53.00;;;;;11.10;71.98;102420.66;5117348;27;45495;-72
2024/01/24 07:53:59;;;;;;;;;53.75;45.00;;;;;10.92;71.69;102382.94;5119268;27;45305;-72
2024/01/24 07:56:25;;;;;;;;;60.50;49.75;;;;;11.13;71.71;102414.69;5118662;27;45589;-71
2024/01/24 07:58:51;;;;;;;;;52.50;41.75;;;;;11.12;71.93;102411.16;5118688;27;45483;-72
2024/01/24 08:01:17;;;;;;;;;62.00;50.25;;;;;10.79;71.84;102372.59;5118644;27;45335;-72
2024/01/24 08:03:42;;;;;;;;;72.75;56.75;;;;;11.13;71.66;102419.91;5118808;27;45702;-72
2024/01/24 08:06:08;;;;;;;;;58.25;47.25;;;;;11.16;71.91;102425.34;5118545;27;45393;-71
2024/01/24 08:08:34;;;;;;;;;63.50;50.75;;;;;11.17;71.79;102431.47;5118476;27;45690;-72
2024/01/24 08:11:00;;;;;;;;;54.00;44.00;;;;;11.17;71.77;102427.13;5119614;27;45326;-72
2024/01/24 08:13:26;;;;;;;;;46.25;38.50;;;;;11.17;71.76;102418.38;5119510;27;45422;-72
2024/01/24 08:15:51;;;;;;;;;42.50;36.25;;;;;11.30;71.36;102432.25;5118516;27;46026;-72
2024/01/24 08:18:17;;;;;;;;;45.75;38.75;;;;;11.15;71.39;102405.22;5118879;27;45426;-71
2024/01/24 08:20:42;;;;;;;;;43.00;38.00;;;;;11.35;71.43;102436.00;5118976;27;45459;-71
2024/01/24 08:23:08;;;;;;;;;58.50;46.75;;;;;11.39;71.27;102433.59;5119248;27;45511;-71
2024/01/24 08:25:34;;;;;;;;;53.50;41.00;;;;;11.19;71.45;102390.59;5118444;27;45415;-72
2024/01/24 08:27:59;;;;;;;;;44.75;37.00;;;;;11.53;71.54;102438.78;5119238;27;45473;-71
2024/01/24 08:30:25;;;;;;;;;37.75;33.25;;;;;11.60;71.28;102440.03;5119057;27;45307;-72
2024/01/24 08:32:51;;;;;;;;;38.25;34.50;;;;;11.66;71.53;102448.22;5119014;27;45511;-72
2024/01/24 08:35:17;;;;;;;;;37.75;32.25;;;;;11.75;71.25;102443.47;5118620;27;45588;-72
2024/01/24 08:37:43;;;;;;;;;45.75;39.00;;;;;11.80;70.97;102454.22;5118726;27;45415;-71
2024/01/24 08:40:10;;;;;;;;;52.25;41.25;;;;;11.85;71.32;102438.75;5118936;27;45313;-72
2024/01/24 08:42:36;;;;;;;;;53.75;39.25;;;;;11.91;70.92;102441.75;5118999;27;45511;-71
2024/01/24 08:45:02;;;;;;;;;44.25;36.25;;;;;11.96;70.65;102440.31;5118915;27;45504;-71
2024/01/24 08:47:27;;;;;;;;;39.50;35.00;;;;;12.01;71.08;102443.16;5118677;27;45270;-71
2024/01/24 08:49:56;;;;;;;;;45.50;37.25;;;;;12.08;70.85;102445.31;5118662;27;45553;-71
2024/01/24 08:52:22;;;;;;;;;46.50;35.00;;;;;11.95;70.94;102412.28;5118762;27;45300;-71
2024/01/24 08:54:48;;;;;;;;;51.25;42.25;;;;;12.23;70.92;102437.34;5117501;27;46190;-71
2024/01/24 08:57:14;;;;;;;;;46.25;37.00;;;;;12.29;71.04;102443.81;5117787;27;45240;-71
2024/01/24 08:59:40;;;;;;;;;46.75;35.75;;;;;12.37;70.83;102438.09;5118069;27;45227;-71
2024/01/24 09:02:07;;;;;;;;;38.00;32.50;;;;;12.46;70.70;102446.47;5118188;27;45359;-71
2024/01/24 09:04:32;;;;;;;;;22.50;19.00;;;;;12.55;70.73;102444.28;5117979;27;46231;-70
2024/01/24 09:06:58;;;;;;;;;16.00;15.00;;;;;12.63;71.28;102445.59;5117996;27;45303;-71
2024/01/24 09:09:25;;;;;;;;;18.25;15.50;;;;;12.67;71.38;102425.69;5116789;27;45561;-71
2024/01/24 09:11:51;;;;;;;;;13.25;12.25;;;;;13.19;71.51;102438.81;5118014;27;45482;-71
2024/01/24 09:14:16;;;;;;;;;15.00;12.50;;;;;14.16;69.95;102427.66;5117779;27;45355;-72
2024/01/24 09:16:42;;;;;;;;;13.50;13.00;;;;;15.66;68.22;102427.00;5118311;27;45333;-70
2024/01/24 09:19:08;;;;;;;;;22.25;19.50;;;;;17.16;63.10;102421.00;5118348;27;45457;-72
2024/01/24 09:21:33;;;;;;;;;28.25;26.00;;;;;18.29;59.57;102405.09;5117503;27;45306;-72
2024/01/24 09:23:59;;;;;;;;;22.75;20.25;;;;;19.33;57.54;102408.66;5118049;27;45248;-72
2024/01/24 09:26:24;;;;;;;;;20.75;20.25;;;;;19.99;55.08;102423.41;5117919;27;45580;-72
2024/01/24 09:28:50;;;;;;;;;16.00;14.50;;;;;20.52;54.51;102417.38;5118299;27;45194;-72
2024/01/24 09:31:16;;;;;;;;;20.00;19.25;;;;;21.00;53.21;102416.47;5118489;27;45340;-71
2024/01/24 09:33:41;;;;;;;;;23.25;22.25;;;;;21.39;51.00;102409.13;5118130;27;45955;-71
2024/01/24 09:36:07;;;;;;;;;5.00;5.00;;;;;21.84;50.59;102405.34;5118341;27;45273;-71
2024/01/24 09:38:33;;;;;;;;;20.00;17.50;;;;;22.12;48.76;102403.91;5120436;27;45435;-71
2024/01/24 09:41:00;;;;;;;;;14.33;14.33;;;;;22.23;49.52;102404.06;5121463;27;45361;-72
2024/01/24 09:43:29;;;;;;;;;22.75;18.75;;;;;22.28;47.58;102402.34;5121689;27;45522;-71
2024/01/24 09:45:57;;;;;;;;;28.25;27.25;;;;;22.37;48.68;102390.94;5121464;27;45368;-72
2024/01/24 09:48:23;;;;;;;;;9.33;8.33;;;;;22.50;47.58;102406.16;5121596;27;45633;-72
2024/01/24 09:50:49;;;;;;;;;10.33;10.33;;;;;22.36;47.63;102384.72;5121492;27;45257;-72
2024/01/24 09:53:19;;;;;;;;;12.67;10.67;;;;;22.37;47.34;102394.47;5121390;27;46071;-72
2024/01/24 09:55:46;;;;;;;;;8.67;8.00;;;;;22.15;47.99;102390.66;5121432;27;45478;-72
2024/01/24 09:58:11;;;;;;;;;2.00;2.00;;;;;22.12;48.76;102397.69;5121724;27;45336;-71
2024/01/24 10:00:37;;;;;;;;;5.00;5.00;;;;;22.10;49.00;102391.47;5121935;27;45294;-72
2024/01/24 10:03:03;;;;;;;;;3.00;2.67;;;;;21.95;48.31;102389.53;5121299;27;45369;-72
2024/01/24 10:05:30;;;;;;;;;6.00;6.00;;;;;21.55;48.63;102351.78;5121277;27;45552;-72
2024/01/24 10:07:56;;;;;;;;;16.00;10.00;;;;;21.53;48.89;102396.97;5121336;27;45471;-71
2024/01/24 10:10:22;;;;;;;;;13.33;13.00;;;;;21.39;48.76;102395.84;5118277;27;45697;-72
2024/01/24 10:12:47;;;;;;;;;2.00;1.00;;;;;21.21;50.60;102392.03;5121021;27;46106;-71
2024/01/24 10:15:13;;;;;;;;;8.33;6.33;;;;;21.05;50.22;102398.88;5121155;27;45471;-72
2024/01/24 10:17:43;;;;;;;;;1.33;1.00;;;;;20.90;50.46;102395.06;5121696;27;45309;-72
2024/01/24 10:20:11;;;;;;;;;2.00;1.00;;;;;20.79;50.63;102387.81;5120318;27;45627;-72
2024/01/24 10:22:42;;;;;;;;;2.00;2.00;;;;;20.69;51.92;102385.88;5121127;27;45457;-71
2024/01/24 10:25:10;;;;;;;;;3.00;1.67;;;;;20.62;51.35;102386.63;5121063;27;45469;-71
2024/01/24 10:27:38;;;;;;;;;4.67;4.00;;;;;20.42;52.41;102391.53;5121160;27;45473;-71
2024/01/24 10:30:15;;;;;;;;;6.33;6.00;;;;;20.29;53.11;102382.44;5120944;27;45432;-71
2024/01/24 10:32:47;;;;;;;;;4.33;4.33;;;;;20.30;52.83;102376.25;5119101;27;46261;-71
2024/01/24 10:35:14;;;;;;;;;2.00;2.00;;;;;20.21;52.79;102354.84;5120466;27;45487;-70
2024/01/24 10:37:41;;;;;;;;;3.33;3.00;;;;;20.39;52.22;102376.44;5121126;27;45447;-71
2024/01/24 10:40:13;;;;;;;;;7.00;6.33;;;;;20.26;52.95;102375.31;5121123;27;45289;-70
2024/01/24 10:42:41;;;;;;;;;8.00;5.00;;;;;20.39;52.32;102368.50;5120759;27;45621;-74
2024/01/24 10:45:08;;;;;;;;;9.33;8.00;;;;;20.32;52.22;102379.84;5120673;27;45507;-76
2024/01/24 10:47:34;;;;;;;;;3.00;3.00;;;;;20.23;53.08;102355.78;5120111;27;45549;-70
2024/01/24 10:50:03;;;;;;;;;3.67;3.67;;;;;20.50;53.25;102379.28;5121288;27;45409;-74
2024/01/24 10:52:30;;;;;;;;;4.00;3.00;;;;;20.41;52.18;102334.91;5119958;27;45556;-69
2024/01/24 10:55:03;;;;;;;;;2.00;2.00;;;;;20.74;52.23;102376.19;5120269;27;45438;-69
2024/01/24 10:57:32;;;;;;;;;3.00;1.33;;;;;20.75;52.80;102378.00;5120667;27;45215;-71
2024/01/24 10:59:58;;;;;;;;;14.33;12.33;;;;;20.79;52.58;102377.19;5120701;27;45810;-72
2024/01/24 11:02:23;;;;;;;;;6.00;4.33;;;;;20.84;53.29;102374.59;5120154;27;45328;-72
2024/01/24 11:04:51;;;;;;;;;5.33;5.33;;;;;20.95;53.76;102377.41;5120374;27;45355;-70
2024/01/24 11:07:27;;;;;;;;;3.33;3.33;;;;;20.98;53.49;102366.84;5120170;27;45396;-69
2024/01/24 11:10:03;;;;;;;;;5.67;5.00;;;;;21.05;53.06;102369.63;5120253;27;45271;-72
2024/01/24 11:12:29;;;;;;;;;6.00;5.00;;;;;20.89;53.02;102329.50;5119980;27;45337;-71
2024/01/24 11:15:05;;;;;;;;;3.00;2.33;;;;;21.19;53.10;102358.34;5119981;27;45382;-72